createdAt,value
2023-05-14T00:00:50.725Z,12.10
2023-05-14T00:03:19.839Z,12.00
2023-05-14T00:05:49.854Z,12.00
2023-05-14T00:08:18.496Z,12.00
2023-05-14T00:10:47.119Z,12.00
2023-05-14T00:13:15.804Z,12.00
2023-05-14T00:15:44.723Z,11.90
2023-05-14T00:18:15.769Z,11.90
2023-05-14T00:20:44.750Z,11.90
2023-05-14T00:23:13.396Z,11.80
2023-05-14T00:25:42.390Z,11.80
2023-05-14T00:28:10.909Z,11.70
2023-05-14T00:30:41.421Z,11.70
2023-05-14T00:33:11.094Z,11.70
2023-05-14T00:35:41.150Z,11.60
2023-05-14T00:38:16.776Z,11.50
2023-05-14T00:40:51.190Z,11.50
2023-05-14T00:43:21.168Z,11.40
2023-05-14T00:45:51.511Z,11.30
2023-05-14T00:48:21.791Z,11.20
2023-05-14T00:50:53.096Z,11.10
2023-05-14T00:53:22.427Z,11.10
2023-05-14T00:55:51.977Z,11.00
2023-05-14T00:58:22.529Z,11.00
2023-05-14T01:00:52.947Z,10.90
2023-05-14T01:03:21.877Z,10.80
2023-05-14T01:06:03.007Z,10.80
2023-05-14T01:08:42.222Z,10.70
2023-05-14T01:11:19.874Z,10.60
2023-05-14T01:14:04.887Z,10.60
2023-05-14T01:16:36.224Z,10.50
2023-05-14T01:19:12.225Z,10.40
2023-05-14T01:21:45.310Z,10.40
2023-05-14T01:24:13.780Z,10.40
2023-05-14T01:26:42.835Z,10.30
2023-05-14T01:29:20.677Z,10.20
2023-05-14T01:31:51.700Z,10.20
2023-05-14T01:34:25.082Z,10.20
2023-05-14T01:36:57.652Z,10.10
2023-05-14T01:39:28.561Z,10.10
2023-05-14T01:41:58.675Z,10.00
2023-05-14T01:44:27.507Z,9.90
2023-05-14T01:46:56.155Z,9.90
2023-05-14T01:49:24.863Z,9.80
2023-05-14T01:51:54.926Z,9.80
2023-05-14T01:54:23.989Z,9.70
2023-05-14T01:56:53.115Z,9.70
2023-05-14T01:59:21.616Z,9.70
2023-05-14T02:01:50.857Z,9.60
2023-05-14T02:04:20.742Z,9.60
2023-05-14T02:06:49.397Z,9.60
2023-05-14T02:09:19.906Z,9.60
2023-05-14T02:11:48.360Z,9.50
2023-05-14T02:14:16.946Z,9.50
2023-05-14T02:16:45.670Z,9.50
2023-05-14T02:19:14.732Z,9.40
2023-05-14T02:21:43.268Z,9.40
2023-05-14T02:24:11.973Z,9.40
2023-05-14T02:26:42.429Z,9.40
2023-05-14T02:29:11.585Z,9.30
2023-05-14T02:31:40.215Z,9.30
2023-05-14T02:34:08.859Z,9.30
2023-05-14T02:36:37.734Z,9.30
2023-05-14T02:39:07.001Z,9.30
2023-05-14T02:41:37.041Z,9.30
2023-05-14T02:44:08.101Z,9.30
2023-05-14T02:46:37.419Z,9.30
2023-05-14T02:49:05.992Z,9.30
2023-05-14T02:51:34.374Z,9.30
2023-05-14T02:54:03.102Z,9.30
2023-05-14T02:56:32.211Z,9.40
2023-05-14T02:59:00.868Z,9.40
2023-05-14T03:01:31.706Z,9.40
2023-05-14T03:04:01.084Z,9.40
2023-05-14T03:06:29.976Z,9.40
2023-05-14T03:09:00.345Z,9.50
2023-05-14T03:11:30.198Z,9.50
2023-05-14T03:14:00.266Z,9.60
2023-05-14T03:16:30.734Z,9.60
2023-05-14T03:19:02.964Z,9.70
2023-05-14T03:21:33.092Z,9.80
2023-05-14T03:24:01.890Z,9.80
2023-05-14T03:26:30.693Z,9.80
2023-05-14T03:28:59.460Z,9.90
2023-05-14T03:31:28.123Z,9.90
2023-05-14T03:33:59.779Z,10.00
2023-05-14T03:36:28.977Z,10.00
2023-05-14T03:38:57.810Z,10.00
2023-05-14T03:41:27.090Z,10.10
2023-05-14T03:43:55.889Z,10.10
2023-05-14T03:46:25.004Z,10.20
2023-05-14T03:48:53.470Z,10.20
2023-05-14T03:51:24.652Z,10.20
2023-05-14T03:53:53.445Z,10.30
2023-05-14T03:56:23.623Z,10.30
2023-05-14T03:58:52.311Z,10.40
2023-05-14T04:01:21.083Z,10.50
2023-05-14T04:03:49.829Z,10.50
2023-05-14T04:06:18.804Z,10.50
2023-05-14T04:08:49.382Z,10.60
2023-05-14T04:11:18.181Z,10.60
2023-05-14T04:13:46.651Z,10.60
2023-05-14T04:16:15.704Z,10.60
2023-05-14T04:18:44.212Z,10.70
2023-05-14T04:21:13.223Z,10.70
2023-05-14T04:23:42.315Z,10.80
2023-05-14T04:26:12.667Z,10.80
2023-05-14T04:28:41.116Z,10.80
2023-05-14T04:31:09.688Z,10.90
2023-05-14T04:33:38.523Z,10.90
2023-05-14T04:36:08.569Z,10.90
2023-05-14T04:38:37.156Z,11.00
2023-05-14T04:41:07.511Z,11.00
2023-05-14T04:43:38.434Z,11.00
2023-05-14T04:46:07.304Z,11.00
2023-05-14T04:48:36.077Z,11.10
2023-05-14T04:51:07.179Z,11.20
2023-05-14T04:53:36.318Z,11.20
2023-05-14T04:56:05.128Z,11.20
2023-05-14T04:58:35.080Z,11.30
2023-05-14T05:01:07.462Z,11.30
2023-05-14T05:03:36.021Z,11.30
2023-05-14T05:06:05.323Z,11.40
2023-05-14T05:08:34.435Z,11.40
2023-05-14T05:11:03.486Z,11.50
2023-05-14T05:13:32.442Z,11.60
2023-05-14T05:16:01.048Z,11.70
2023-05-14T05:18:31.438Z,11.70
2023-05-14T05:21:00.220Z,11.80
2023-05-14T05:23:29.005Z,11.80
2023-05-14T05:25:57.819Z,11.90
2023-05-14T05:28:26.849Z,11.90
2023-05-14T05:30:56.597Z,11.90
2023-05-14T05:33:25.278Z,11.90
2023-05-14T05:35:55.811Z,11.90
2023-05-14T05:38:24.294Z,12.00
2023-05-14T05:40:53.177Z,12.00
2023-05-14T05:43:21.696Z,12.10
2023-05-14T05:45:50.767Z,12.20
2023-05-14T05:48:19.730Z,12.20
2023-05-14T05:50:49.549Z,12.30
2023-05-14T05:53:20.065Z,12.30
2023-05-14T05:55:48.525Z,12.30
2023-05-14T05:58:17.646Z,12.40
2023-05-14T06:00:47.121Z,12.50
2023-05-14T06:03:16.272Z,12.60
2023-05-14T06:05:45.037Z,12.60
2023-05-14T06:08:13.970Z,12.70
2023-05-14T06:10:46.255Z,12.70
2023-05-14T06:13:16.671Z,12.80
2023-05-14T06:15:45.663Z,12.80
2023-05-14T06:18:14.213Z,12.80
2023-05-14T06:20:43.129Z,12.90
2023-05-14T06:23:12.548Z,13.00
2023-05-14T06:25:41.360Z,13.10
2023-05-14T06:28:11.464Z,13.20
2023-05-14T06:30:40.402Z,13.30
2023-05-14T06:33:09.310Z,13.40
2023-05-14T06:35:38.161Z,13.50
2023-05-14T06:38:06.703Z,13.50
2023-05-14T06:40:35.947Z,13.70
2023-05-14T06:43:07.014Z,13.80
2023-05-14T06:45:37.565Z,14.00
2023-05-14T06:48:06.852Z,14.10
2023-05-14T06:50:35.643Z,14.20
2023-05-14T06:53:05.938Z,14.30
2023-05-14T06:55:34.620Z,14.40
2023-05-14T06:58:04.390Z,14.60
2023-05-14T07:00:33.216Z,14.80
2023-05-14T07:03:03.524Z,15.00
2023-05-14T07:05:32.023Z,15.10
2023-05-14T07:08:00.503Z,15.20
2023-05-14T07:10:28.989Z,15.20
2023-05-14T07:12:57.709Z,15.20
2023-05-14T07:15:26.765Z,15.20
2023-05-14T07:17:55.629Z,15.40
2023-05-14T07:20:26.774Z,15.50
2023-05-14T07:22:55.744Z,15.60
2023-05-14T07:25:24.774Z,15.70
2023-05-14T07:27:53.375Z,15.80
2023-05-14T07:30:22.220Z,15.80
2023-05-14T07:32:51.361Z,15.90
2023-05-14T07:35:20.050Z,16.00
2023-05-14T07:37:50.209Z,16.10
2023-05-14T07:40:18.991Z,16.20
2023-05-14T07:42:47.485Z,16.30
2023-05-14T07:45:16.394Z,16.50
2023-05-14T07:47:48.002Z,16.60
2023-05-14T07:50:17.482Z,16.90
2023-05-14T07:52:47.301Z,17.20
2023-05-14T07:55:18.217Z,17.40
2023-05-14T07:57:47.426Z,17.60
2023-05-14T08:00:17.382Z,17.80
2023-05-14T08:02:46.562Z,18.10
2023-05-14T08:05:17.257Z,18.50
2023-05-14T08:07:46.277Z,18.90
2023-05-14T08:10:16.595Z,19.10
2023-05-14T08:12:45.304Z,19.20
2023-05-14T08:15:14.846Z,19.40
2023-05-14T08:17:44.600Z,19.60
2023-05-14T08:20:14.080Z,19.80
2023-05-14T08:22:42.787Z,20.00
2023-05-14T08:25:11.797Z,20.30
2023-05-14T08:27:42.017Z,20.40
2023-05-14T08:30:11.686Z,20.30
2023-05-14T08:32:40.924Z,20.60
2023-05-14T08:35:11.280Z,20.90
2023-05-14T08:37:40.257Z,21.10
2023-05-14T08:40:11.393Z,21.40
2023-05-14T08:42:45.220Z,21.90
2023-05-14T08:45:19.823Z,22.30
2023-05-14T08:47:51.585Z,22.30
2023-05-14T08:50:22.909Z,22.30
2023-05-14T08:52:54.824Z,22.00
2023-05-14T08:55:26.457Z,22.20
2023-05-14T08:57:56.907Z,22.40
2023-05-14T09:00:26.580Z,22.40
2023-05-14T09:02:56.201Z,22.20
2023-05-14T09:05:26.348Z,22.30
2023-05-14T09:07:55.298Z,22.00
2023-05-14T09:10:24.421Z,21.80
2023-05-14T09:12:53.597Z,21.80
2023-05-14T09:15:25.075Z,21.70
2023-05-14T09:17:54.492Z,21.50
2023-05-14T09:20:23.819Z,21.30
2023-05-14T09:22:55.861Z,21.10
2023-05-14T09:25:29.552Z,20.90
2023-05-14T09:27:58.933Z,20.70
2023-05-14T09:30:30.319Z,20.60
2023-05-14T09:32:58.873Z,20.20
2023-05-14T09:35:28.330Z,20.10
2023-05-14T09:37:57.815Z,20.10
2023-05-14T09:40:26.753Z,20.10
2023-05-14T09:42:57.397Z,20.10
2023-05-14T09:45:26.488Z,20.00
2023-05-14T09:47:56.944Z,19.90
2023-05-14T09:50:26.478Z,19.80
2023-05-14T09:52:57.406Z,19.70
2023-05-14T09:55:27.805Z,19.70
2023-05-14T09:57:57.002Z,19.70
2023-05-14T10:00:27.670Z,19.60
2023-05-14T10:03:00.934Z,19.30
2023-05-14T10:05:30.275Z,19.20
2023-05-14T10:08:01.315Z,19.10
2023-05-14T10:10:32.041Z,19.10
2023-05-14T10:13:05.865Z,19.10
2023-05-14T10:15:42.284Z,19.10
2023-05-14T10:18:18.247Z,19.20
2023-05-14T10:20:50.422Z,19.20
2023-05-14T10:23:19.777Z,19.20
2023-05-14T10:25:50.448Z,19.30
2023-05-14T10:28:19.873Z,19.40
2023-05-14T10:30:49.478Z,19.50
2023-05-14T10:33:20.254Z,19.60
2023-05-14T10:36:03.845Z,19.70
2023-05-14T10:38:36.484Z,19.80
2023-05-14T10:41:07.690Z,19.80
2023-05-14T10:43:41.069Z,19.80
2023-05-14T10:46:13.472Z,19.80
2023-05-14T10:48:46.174Z,19.90
2023-05-14T10:51:17.872Z,19.80
2023-05-14T10:53:47.279Z,19.90
2023-05-14T10:56:16.159Z,19.90
2023-05-14T10:58:47.363Z,20.00
2023-05-14T11:01:16.450Z,20.10
2023-05-14T11:03:48.108Z,20.20
2023-05-14T11:06:18.070Z,20.20
2023-05-14T11:08:47.610Z,20.30
2023-05-14T11:11:16.381Z,20.30
2023-05-14T11:13:45.580Z,20.30
2023-05-14T11:16:23.539Z,20.40
2023-05-14T11:19:04.452Z,20.60
2023-05-14T11:21:34.067Z,20.70
2023-05-14T11:24:05.003Z,20.90
2023-05-14T11:26:35.579Z,21.20
2023-05-14T11:29:06.169Z,21.40
2023-05-14T11:31:35.061Z,22.10
2023-05-14T11:34:07.192Z,22.20
2023-05-14T11:36:38.528Z,22.50
2023-05-14T11:39:08.102Z,23.30
2023-05-14T11:41:36.688Z,24.10
2023-05-14T11:44:09.076Z,25.30
2023-05-14T11:46:38.009Z,25.50
2023-05-14T11:49:08.705Z,25.00
2023-05-14T11:51:38.832Z,24.80
2023-05-14T11:54:08.647Z,24.80
2023-05-14T11:56:39.324Z,24.90
2023-05-14T11:59:08.352Z,25.80
2023-05-14T12:01:40.096Z,26.00
2023-05-14T12:04:12.748Z,25.30
2023-05-14T12:06:42.076Z,25.70
2023-05-14T12:09:16.336Z,26.60
2023-05-14T12:11:45.807Z,27.30
2023-05-14T12:14:17.892Z,28.00
2023-05-14T12:16:47.401Z,27.80
2023-05-14T12:19:19.987Z,26.90
2023-05-14T12:21:52.489Z,26.40
2023-05-14T12:24:23.262Z,25.60
2023-05-14T12:26:55.461Z,25.40
2023-05-14T12:29:27.136Z,25.80
2023-05-14T12:31:59.919Z,25.50
2023-05-14T12:34:30.103Z,25.20
2023-05-14T12:36:58.800Z,24.90
2023-05-14T12:39:30.231Z,24.70
2023-05-14T12:41:59.092Z,24.60
2023-05-14T12:44:28.080Z,24.30
2023-05-14T12:46:57.705Z,23.80
2023-05-14T12:49:27.648Z,23.40
2023-05-14T12:52:13.126Z,23.00
2023-05-14T12:54:46.687Z,22.70
2023-05-14T12:57:16.039Z,22.60
2023-05-14T12:59:45.080Z,22.90
2023-05-14T13:02:15.414Z,23.80
2023-05-14T13:04:46.862Z,24.70
2023-05-14T13:07:18.410Z,25.30
2023-05-14T13:09:47.742Z,25.70
2023-05-14T13:12:16.276Z,26.10
2023-05-14T13:14:46.795Z,25.90
2023-05-14T13:17:16.366Z,25.90
2023-05-14T13:19:46.806Z,26.00
2023-05-14T13:22:19.028Z,25.70
2023-05-14T13:24:49.587Z,25.20
2023-05-14T13:27:18.073Z,24.70
2023-05-14T13:29:46.519Z,24.00
2023-05-14T13:32:15.619Z,23.60
2023-05-14T13:34:44.382Z,23.30
2023-05-14T13:37:13.804Z,22.90
2023-05-14T13:39:45.042Z,22.60
2023-05-14T13:42:14.405Z,22.10
2023-05-14T13:44:43.032Z,21.90
2023-05-14T13:47:14.699Z,21.70
2023-05-14T13:49:44.395Z,21.40
2023-05-14T13:52:12.873Z,21.20
2023-05-14T13:54:42.314Z,20.90
2023-05-14T13:57:12.450Z,20.90
2023-05-14T13:59:41.534Z,20.80
2023-05-14T14:02:12.152Z,20.70
2023-05-14T14:04:42.119Z,20.70
2023-05-14T14:07:10.915Z,20.70
2023-05-14T14:09:39.578Z,20.80
2023-05-14T14:12:12.585Z,21.00
2023-05-14T14:14:43.186Z,21.10
2023-05-14T14:17:12.768Z,21.30
2023-05-14T14:19:42.521Z,21.50
2023-05-14T14:22:12.928Z,21.80
2023-05-14T14:24:42.121Z,22.00
2023-05-14T14:27:10.918Z,22.20
2023-05-14T14:29:39.868Z,22.10
2023-05-14T14:32:10.883Z,21.80
2023-05-14T14:34:42.088Z,21.90
2023-05-14T14:37:12.701Z,21.90
2023-05-14T14:39:41.639Z,21.60
2023-05-14T14:42:11.077Z,21.20
2023-05-14T14:44:39.860Z,21.00
2023-05-14T14:47:11.974Z,20.80
2023-05-14T14:49:40.824Z,20.70
2023-05-14T14:52:11.353Z,20.60
2023-05-14T14:54:41.046Z,20.60
2023-05-14T14:57:10.147Z,20.80
2023-05-14T14:59:39.617Z,21.10
2023-05-14T15:02:12.288Z,21.40
2023-05-14T15:04:41.212Z,21.50
2023-05-14T15:07:09.785Z,21.50
2023-05-14T15:09:39.988Z,21.60
2023-05-14T15:12:10.883Z,21.70
2023-05-14T15:14:40.816Z,21.80
2023-05-14T15:17:11.117Z,22.00
2023-05-14T15:19:41.478Z,21.90
2023-05-14T15:22:10.901Z,21.80
2023-05-14T15:24:39.756Z,21.70
2023-05-14T15:27:09.055Z,21.60
2023-05-14T15:29:38.230Z,21.40
2023-05-14T15:32:08.651Z,21.30
2023-05-14T15:34:39.202Z,21.10
2023-05-14T15:37:08.590Z,21.00
2023-05-14T15:39:38.494Z,21.00
2023-05-14T15:42:10.729Z,20.90
2023-05-14T15:44:39.332Z,20.80
2023-05-14T15:47:08.317Z,20.80
2023-05-14T15:49:38.823Z,20.60
2023-05-14T15:52:07.841Z,20.40
2023-05-14T15:54:37.148Z,20.30
2023-05-14T15:57:06.394Z,20.30
2023-05-14T15:59:36.020Z,20.20
2023-05-14T16:02:04.663Z,20.20
2023-05-14T16:04:33.342Z,20.20
2023-05-14T16:07:08.129Z,20.20
2023-05-14T16:09:38.678Z,20.20
2023-05-14T16:12:09.317Z,20.20
2023-05-14T16:14:39.475Z,20.10
2023-05-14T16:17:12.478Z,20.10
2023-05-14T16:19:42.003Z,20.00
2023-05-14T16:22:12.612Z,19.80
2023-05-14T16:24:43.245Z,19.80
2023-05-14T16:27:12.298Z,19.70
2023-05-14T16:29:42.186Z,19.60
2023-05-14T16:32:13.584Z,19.60
2023-05-14T16:34:47.532Z,19.60
2023-05-14T16:37:17.843Z,19.60
2023-05-14T16:39:46.960Z,19.60
2023-05-14T16:42:16.045Z,19.50
2023-05-14T16:44:46.958Z,19.40
2023-05-14T16:47:15.815Z,19.40
2023-05-14T16:49:45.151Z,19.40
2023-05-14T16:52:17.121Z,19.30
2023-05-14T16:54:46.008Z,19.30
2023-05-14T16:57:15.058Z,19.30
2023-05-14T16:59:43.592Z,19.20
2023-05-14T17:02:13.881Z,19.20
2023-05-14T17:04:46.397Z,19.20
2023-05-14T17:07:16.526Z,19.10
2023-05-14T17:09:45.402Z,19.10
2023-05-14T17:12:14.741Z,19.00
2023-05-14T17:14:43.786Z,18.90
2023-05-14T17:17:12.684Z,18.90
2023-05-14T17:19:41.313Z,18.80
2023-05-14T17:22:10.420Z,18.80
2023-05-14T17:24:40.632Z,18.70
2023-05-14T17:27:10.431Z,18.70
2023-05-14T17:29:39.308Z,18.70
2023-05-14T17:32:09.084Z,18.60
2023-05-14T17:34:37.911Z,18.60
2023-05-14T17:37:07.100Z,18.50
2023-05-14T17:39:35.737Z,18.40
2023-05-14T17:42:07.432Z,18.40
2023-05-14T17:44:36.691Z,18.30
2023-05-14T17:47:07.166Z,18.20
2023-05-14T17:49:36.348Z,18.20
2023-05-14T17:52:06.541Z,18.10
2023-05-14T17:54:35.386Z,18.00
2023-05-14T17:57:06.019Z,17.90
2023-05-14T17:59:34.998Z,17.90
2023-05-14T18:02:05.678Z,17.70
2023-05-14T18:04:34.420Z,17.70
2023-05-14T18:07:03.491Z,17.60
2023-05-14T18:09:31.964Z,17.50
2023-05-14T18:12:00.664Z,17.40
2023-05-14T18:14:30.662Z,17.30
2023-05-14T18:16:59.979Z,17.20
2023-05-14T18:19:28.592Z,17.00
2023-05-14T18:21:57.403Z,16.90
2023-05-14T18:24:26.489Z,16.80
2023-05-14T18:26:55.911Z,16.70
2023-05-14T18:29:24.787Z,16.60
2023-05-14T18:31:54.693Z,16.60
2023-05-14T18:34:23.290Z,16.50
2023-05-14T18:36:51.840Z,16.40
2023-05-14T18:39:21.043Z,16.30
2023-05-14T18:41:49.553Z,16.20
2023-05-14T18:44:18.343Z,16.20
2023-05-14T18:46:47.525Z,16.10
2023-05-14T18:49:17.895Z,16.10
2023-05-14T18:51:46.606Z,16.10
2023-05-14T18:54:15.377Z,16.10
2023-05-14T18:56:47.410Z,16.00
2023-05-14T18:59:16.616Z,15.90
2023-05-14T19:01:45.823Z,15.90
2023-05-14T19:04:14.832Z,15.80
2023-05-14T19:06:45.215Z,15.80
2023-05-14T19:09:14.824Z,15.70
2023-05-14T19:11:43.766Z,15.60
2023-05-14T19:14:12.609Z,15.50
2023-05-14T19:16:42.313Z,15.40
2023-05-14T19:19:12.010Z,15.40
2023-05-14T19:21:40.805Z,15.30
2023-05-14T19:24:11.017Z,15.10
2023-05-14T19:26:41.292Z,15.00
2023-05-14T19:29:10.575Z,14.90
2023-05-14T19:31:39.066Z,14.80
2023-05-14T19:34:08.068Z,14.70
2023-05-14T19:36:36.933Z,14.60
2023-05-14T19:39:05.535Z,14.60
2023-05-14T19:41:35.539Z,14.50
2023-05-14T19:44:04.425Z,14.40
2023-05-14T19:46:33.573Z,14.30
2023-05-14T19:49:02.529Z,14.20
2023-05-14T19:51:31.088Z,14.20
2023-05-14T19:53:59.586Z,14.10
2023-05-14T19:56:29.956Z,14.10
2023-05-14T19:59:00.279Z,14.10
2023-05-14T20:01:29.044Z,14.00
2023-05-14T20:03:57.370Z,14.00
2023-05-14T20:06:26.228Z,13.90
2023-05-14T20:08:55.609Z,13.90
2023-05-14T20:11:24.312Z,13.80
2023-05-14T20:13:54.115Z,13.70
2023-05-14T20:16:26.057Z,13.60
2023-05-14T20:18:55.134Z,13.60
2023-05-14T20:21:24.038Z,13.50
2023-05-14T20:23:52.927Z,13.50
2023-05-14T20:26:21.616Z,13.50
2023-05-14T20:28:50.376Z,13.50
2023-05-14T20:31:21.768Z,13.40
2023-05-14T20:33:52.143Z,13.40
2023-05-14T20:36:21.126Z,13.30
2023-05-14T20:38:50.019Z,13.20
2023-05-14T20:41:18.882Z,13.10
2023-05-14T20:43:49.134Z,13.10
2023-05-14T20:46:17.633Z,13.00
2023-05-14T20:48:48.315Z,12.90
2023-05-14T20:51:18.386Z,12.80
2023-05-14T20:53:47.185Z,12.80
2023-05-14T20:56:16.754Z,12.70
2023-05-14T20:58:45.339Z,12.50
2023-05-14T21:01:13.862Z,12.40
2023-05-14T21:03:42.765Z,12.40
2023-05-14T21:06:11.688Z,12.30
2023-05-14T21:08:42.133Z,12.30
2023-05-14T21:11:10.997Z,12.20
2023-05-14T21:13:39.536Z,12.10
2023-05-14T21:16:11.961Z,12.10
2023-05-14T21:18:40.568Z,12.00
2023-05-14T21:21:09.575Z,12.00
2023-05-14T21:23:43.800Z,12.00
2023-05-14T21:26:12.753Z,12.00
2023-05-14T21:28:41.641Z,12.00
2023-05-14T21:31:11.251Z,11.90
2023-05-14T21:33:40.858Z,12.00
2023-05-14T21:36:10.317Z,12.00
2023-05-14T21:38:41.300Z,12.00
2023-05-14T21:41:10.385Z,12.00
2023-05-14T21:43:40.660Z,12.10
2023-05-14T21:46:11.660Z,12.20
2023-05-14T21:48:42.109Z,12.20
2023-05-14T21:51:10.980Z,12.30
2023-05-14T21:53:40.835Z,12.30
2023-05-14T21:56:09.852Z,12.30
2023-05-14T21:58:38.688Z,12.30
2023-05-14T22:01:09.305Z,12.40
2023-05-14T22:03:37.879Z,12.30
2023-05-14T22:06:07.992Z,12.40
2023-05-14T22:08:36.826Z,12.30
2023-05-14T22:11:07.960Z,12.30
2023-05-14T22:13:40.774Z,12.30
2023-05-14T22:16:13.693Z,12.30
2023-05-14T22:18:42.861Z,12.20
2023-05-14T22:21:12.924Z,12.20
2023-05-14T22:23:41.522Z,12.20
2023-05-14T22:26:11.700Z,12.10
2023-05-14T22:28:42.991Z,12.10
2023-05-14T22:31:11.993Z,12.00
2023-05-14T22:33:40.885Z,12.00
2023-05-14T22:36:10.958Z,11.90
2023-05-14T22:38:41.160Z,11.80
2023-05-14T22:41:11.308Z,11.70
2023-05-14T22:43:40.655Z,11.70
2023-05-14T22:46:10.162Z,11.60
2023-05-14T22:48:38.733Z,11.50
2023-05-14T22:51:07.602Z,11.40
2023-05-14T22:53:36.056Z,11.40
2023-05-14T22:56:06.188Z,11.30
2023-05-14T22:58:36.167Z,11.30
2023-05-14T23:01:04.886Z,11.20
2023-05-14T23:03:33.465Z,11.20
2023-05-14T23:06:02.203Z,11.20
2023-05-14T23:08:31.338Z,11.10
2023-05-14T23:11:00.353Z,11.10
2023-05-14T23:13:29.133Z,11.10
2023-05-14T23:15:59.053Z,11.00
2023-05-14T23:18:27.790Z,11.00
2023-05-14T23:20:56.478Z,11.00
2023-05-14T23:23:25.291Z,10.90
2023-05-14T23:25:54.767Z,10.90
2023-05-14T23:28:23.944Z,10.90
2023-05-14T23:30:52.656Z,10.90
2023-05-14T23:33:22.976Z,10.80
2023-05-14T23:35:52.125Z,10.80
2023-05-14T23:38:21.022Z,10.80
2023-05-14T23:40:49.869Z,10.80
2023-05-14T23:43:19.358Z,10.80
2023-05-14T23:45:48.160Z,10.70
2023-05-14T23:48:17.121Z,10.70
2023-05-14T23:50:47.292Z,10.70
2023-05-14T23:53:16.056Z,10.70
2023-05-14T23:55:44.525Z,10.70
2023-05-14T23:58:13.860Z,10.60
